Time;durP1;ratioP1;P1;durP2;ratioP2;P2;SDS_P1;SDS_P2;PMS_P1;PMS_P2;Temp;Humidity;BMP_temperature;BMP_pressure;BME280_temperature;BME280_humidity;BME280_pressure;Samples;Min_cycle;Max_cycle;Signal;HPM_P1;HPM_P2
2022/12/12 00:01:47;;;;;;;;;;;;;;;-1.88;100.00;99278.22;5590478;31;34848;-71
2022/12/12 00:04:58;;;;;;;;;;;;;;;-1.85;100.00;99270.22;5590345;31;34907;-71
2022/12/12 00:08:06;;;;;;;;;;;;;;;-1.77;100.00;99274.81;5590675;31;34806;-70
2022/12/12 00:11:11;;;;;;;;;;;;;;;-1.82;100.00;99279.53;5590700;31;34848;-71
2022/12/12 00:14:17;;;;;;;;;;;;;;;-1.84;100.00;99282.22;5590661;31;34176;-71
2022/12/12 00:17:22;;;;;;;;;;;;;;;-1.86;100.00;99283.31;5590539;31;34290;-72
2022/12/12 00:20:28;;;;;;;;;;;;;;;-1.85;100.00;99287.56;5590652;31;34967;-70
2022/12/12 00:23:35;;;;;;;;;;;;;;;-1.83;100.00;99301.25;5590594;31;34625;-72
2022/12/12 00:26:42;;;;;;;;;;;;;;;-1.87;100.00;99297.25;5590493;31;34920;-71
2022/12/12 00:29:51;;;;;;;;;;;;;;;-1.90;100.00;99300.09;5590283;31;34552;-70
2022/12/12 00:32:56;;;;;;;;;;;;;;;-1.87;100.00;99307.63;5590662;31;34362;-71
2022/12/12 00:36:03;;;;;;;;;;;;;;;-1.88;100.00;99303.38;5590452;31;34868;-71
2022/12/12 00:39:11;;;;;;;;;;;;;;;-1.90;100.00;99316.50;5590279;31;34642;-71
2022/12/12 00:42:22;;;;;;;;;;;;;;;-1.90;100.00;99316.50;5576277;31;35497;-71
2022/12/12 00:45:31;;;;;;;;;;;;;;;-1.92;100.00;99338.34;5590665;31;34886;-71
2022/12/12 00:48:38;;;;;;;;;;;;;;;-1.97;100.00;99327.47;5590477;31;34207;-71
2022/12/12 00:51:45;;;;;;;;;;;;;;;-1.95;100.00;99336.81;5590270;31;34208;-72
2022/12/12 00:54:54;;;;;;;;;;;;;;;-2.08;100.00;99324.84;5590383;31;34397;-71
2022/12/12 00:58:01;;;;;;;;;;;;;;;-2.13;100.00;99330.37;5576462;31;35230;-70
2022/12/12 01:01:09;;;;;;;;;;;;;;;-2.17;100.00;99326.34;5590170;31;34273;-71
2022/12/12 01:04:16;;;;;;;;;;;;;;;-2.25;100.00;99329.50;5590087;31;34451;-70
2022/12/12 01:07:25;;;;;;;;;;;;;;;-2.31;100.00;99319.56;5590110;31;34880;-71
2022/12/12 01:10:31;;;;;;;;;;;;;;;-2.28;100.00;99314.16;5590113;31;34247;-71
2022/12/12 01:13:38;;;;;;;;;;;;;;;-2.31;100.00;99319.56;5590090;31;34633;-72
2022/12/12 01:16:44;;;;;;;;;;;;;;;-2.30;100.00;99310.00;5589111;31;34235;-71
2022/12/12 01:19:51;;;;;;;;;;;;;;;-2.32;100.00;99317.91;5590016;31;34300;-71
2022/12/12 01:22:58;;;;;;;;;;;;;;;-2.29;100.00;99307.31;5590326;31;34334;-71
2022/12/12 01:26:09;;;;;;;;;;;;;;;-2.26;100.00;99307.06;5589920;31;34918;-71
2022/12/12 01:29:16;;;;;;;;;;;;;;;-2.23;100.00;99300.84;5589944;31;34148;-71
2022/12/12 01:32:22;;;;;;;;;;;;;;;-2.24;100.00;99310.41;5589751;31;34825;-72
2022/12/12 01:35:29;;;;;;;;;;;;;;;-2.24;100.00;99306.97;5589857;31;35063;-71
2022/12/12 01:38:35;;;;;;;;;;;;;;;-2.24;100.00;99309.56;5576161;31;34680;-71
2022/12/12 01:41:45;;;;;;;;;;;;;;;-2.26;100.00;99301.88;5576923;31;34821;-71
2022/12/12 01:44:53;;;;;;;;;;;;;;;-2.24;100.00;99299.19;5589569;31;34789;-70
2022/12/12 01:48:00;;;;;;;;;;;;;;;-2.31;100.00;99303.97;5589838;31;34930;-70
2022/12/12 01:51:15;;;;;;;;;;;;;;;-2.39;100.00;99289.91;5589601;31;34967;-70
2022/12/12 01:54:26;;;;;;;;;;;;;;;-2.40;100.00;99283.87;5589669;31;34969;-71
2022/12/12 01:57:36;;;;;;;;;;;;;;;-2.38;100.00;99287.22;5589476;31;34876;-71
2022/12/12 02:00:44;;;;;;;;;;;;;;;-2.41;100.00;99290.00;5589538;31;34248;-71
2022/12/12 02:03:51;;;;;;;;;;;;;;;-2.49;100.00;99296.72;5589245;31;34500;-71
2022/12/12 02:07:02;;;;;;;;;;;;;;;-2.54;100.00;99291.87;5589370;31;34866;-74
2022/12/12 02:10:08;;;;;;;;;;;;;;;-2.61;100.00;99300.22;5589314;31;34943;-71
2022/12/12 02:13:20;;;;;;;;;;;;;;;-2.64;100.00;99311.62;5589324;31;34373;-71
2022/12/12 02:16:44;;;;;;;;;;;;;;;-2.58;100.00;99313.81;5589392;31;34154;-70
2022/12/12 02:20:09;;;;;;;;;;;;;;;-2.64;100.00;99309.03;5589266;31;34952;-71
2022/12/12 02:23:19;;;;;;;;;;;;;;;-2.67;100.00;99322.25;5589147;31;34706;-71
2022/12/12 02:26:24;;;;;;;;;;;;;;;-2.67;100.00;99320.50;5575762;31;35191;-71
2022/12/12 02:29:41;;;;;;;;;;;;;;;-2.61;100.00;99323.59;5591557;31;34815;-71
2022/12/12 02:32:56;;;;;;;;;;;;;;;-2.70;100.00;99325.88;5591463;31;34227;-72
2022/12/12 02:36:08;;;;;;;;;;;;;;;-2.66;100.00;99316.94;5591502;31;35071;-71
2022/12/12 02:39:20;;;;;;;;;;;;;;;-2.69;100.00;99311.97;5591448;31;34934;-70
2022/12/12 02:42:30;;;;;;;;;;;;;;;-2.68;100.00;99330.97;5591390;31;34032;-71
2022/12/12 02:45:43;;;;;;;;;;;;;;;-2.53;100.00;99301.31;5577308;31;35596;-71
2022/12/12 02:48:55;;;;;;;;;;;;;;;-2.47;100.00;99306.03;5591365;31;34139;-71
2022/12/12 02:52:01;;;;;;;;;;;;;;;-2.51;100.00;99298.59;5564531;31;35652;-71
2022/12/12 02:55:08;;;;;;;;;;;;;;;-2.39;100.00;99301.13;5591351;31;34445;-72
2022/12/12 02:58:16;;;;;;;;;;;;;;;-2.41;100.00;99315.16;5591298;31;34238;-70
2022/12/12 03:01:34;;;;;;;;;;;;;;;-2.40;100.00;99316.81;5591103;31;34776;-71
2022/12/12 03:08:35;;;;;;;;;;;;;;;-2.45;100.00;99327.53;5541524;32;34396;-71
2022/12/12 03:11:42;;;;;;;;;;;;;;;-2.44;100.00;99324.00;5551991;32;34392;-71
2022/12/12 03:14:53;;;;;;;;;;;;;;;-2.44;100.00;99334.41;5551935;32;34921;-72
2022/12/12 03:18:14;;;;;;;;;;;;;;;-2.34;100.00;99334.56;5551810;32;34823;-72
2022/12/12 03:21:25;;;;;;;;;;;;;;;-2.42;100.00;99331.69;5551206;32;34451;-70
2022/12/12 03:24:42;;;;;;;;;;;;;;;-2.43;100.00;99338.66;5552228;32;34857;-72
2022/12/12 03:27:54;;;;;;;;;;;;;;;-2.49;100.00;99338.25;5551870;32;34885;-71
2022/12/12 03:31:04;;;;;;;;;;;;;;;-2.54;100.00;99335.16;5551997;32;34870;-72
2022/12/12 03:34:26;;;;;;;;;;;;;;;-2.48;100.00;99332.13;5538685;32;35115;-71
2022/12/12 03:37:34;;;;;;;;;;;;;;;-2.41;100.00;99335.94;5551532;32;34332;-72
2022/12/12 03:40:48;;;;;;;;;;;;;;;-2.56;100.00;99343.06;5551483;32;34462;-71
2022/12/12 03:44:00;;;;;;;;;;;;;;;-2.50;100.00;99336.59;5551702;32;34135;-71
2022/12/12 03:47:11;;;;;;;;;;;;;;;-2.45;100.00;99345.72;5551657;32;34920;-71
2022/12/12 03:50:27;;;;;;;;;;;;;;;-2.50;100.00;99347.00;5551706;32;34630;-70
2022/12/12 03:53:38;;;;;;;;;;;;;;;-2.54;100.00;99348.16;5550963;32;34330;-71
2022/12/12 03:56:44;;;;;;;;;;;;;;;-2.41;100.00;99349.75;5551676;32;34415;-71
2022/12/12 03:59:59;;;;;;;;;;;;;;;-2.40;100.00;99360.97;5551563;32;34722;-70
2022/12/12 04:03:22;;;;;;;;;;;;;;;-2.38;100.00;99365.12;5573828;31;34913;-71
2022/12/12 04:06:28;;;;;;;;;;;;;;;-2.27;100.00;99370.34;5590564;31;34914;-71
2022/12/12 04:13:12;;;;;;;;;;;;;;;-2.31;100.00;99376.72;5590460;31;34431;-71
2022/12/12 04:16:24;;;;;;;;;;;;;;;-2.23;100.00;99391.75;5590548;31;34904;-71
2022/12/12 04:23:14;;;;;;;;;;;;;;;-2.21;100.00;99403.69;5590427;31;34303;-71
2022/12/12 04:26:38;;;;;;;;;;;;;;;-2.31;100.00;99412.25;5590421;31;34215;-71
2022/12/12 04:29:59;;;;;;;;;;;;;;;-2.38;100.00;99409.28;5590382;31;34814;-71
2022/12/12 04:33:13;;;;;;;;;;;;;;;-2.41;100.00;99413.84;5590379;31;34604;-71
2022/12/12 04:36:20;;;;;;;;;;;;;;;-2.30;100.00;99419.09;5590353;31;34015;-71
2022/12/12 04:39:26;;;;;;;;;;;;;;;-2.24;100.00;99424.69;5590260;31;34965;-71
2022/12/12 04:42:42;;;;;;;;;;;;;;;-2.35;100.00;99422.03;5590191;31;34980;-71
2022/12/12 04:45:52;;;;;;;;;;;;;;;-2.35;100.00;99435.03;5590251;31;34383;-71
2022/12/12 04:49:01;;;;;;;;;;;;;;;-2.34;100.00;99430.66;5590308;31;34085;-72
2022/12/12 04:52:11;;;;;;;;;;;;;;;-2.45;100.00;99436.59;5589347;31;34211;-70
2022/12/12 04:55:23;;;;;;;;;;;;;;;-2.52;100.00;99431.97;5590253;31;34333;-71
2022/12/12 04:58:29;;;;;;;;;;;;;;;-2.46;100.00;99428.91;5590556;31;34920;-71
2022/12/12 05:01:44;;;;;;;;;;;;;;;-2.47;100.00;99433.28;5589622;31;34789;-72
2022/12/12 05:05:16;;;;;;;;;;;;;;;-2.51;100.00;99431.00;5590149;31;34349;-71
2022/12/12 05:08:34;;;;;;;;;;;;;;;-2.53;100.00;99428.53;5590056;31;34722;-71
2022/12/12 05:11:41;;;;;;;;;;;;;;;-2.59;100.00;99425.53;5575850;31;34454;-71
2022/12/12 05:14:46;;;;;;;;;;;;;;;-2.54;100.00;99431.25;5590034;31;34867;-73
2022/12/12 05:17:58;;;;;;;;;;;;;;;-2.60;100.00;99427.31;5589859;31;34742;-71
2022/12/12 05:21:04;;;;;;;;;;;;;;;-2.62;98.88;99446.53;5589793;31;34305;-71
2022/12/12 05:24:12;;;;;;;;;;;;;;;-2.65;99.54;99444.97;5589877;31;34378;-69
2022/12/12 05:27:19;;;;;;;;;;;;;;;-2.68;99.05;99440.00;5589975;31;34864;-72
2022/12/12 05:30:24;;;;;;;;;;;;;;;-2.70;99.90;99454.84;5576350;31;34810;-72
2022/12/12 05:33:28;;;;;;;;;;;;;;;-2.80;100.00;99457.25;5589849;31;34332;-72
2022/12/12 05:36:31;;;;;;;;;;;;;;;-2.84;100.00;99466.19;5589700;31;34733;-72
2022/12/12 05:39:35;;;;;;;;;;;;;;;-2.84;100.00;99458.41;5575462;31;33011;-72
2022/12/12 05:42:39;;;;;;;;;;;;;;;-2.90;100.00;99461.41;5589922;31;34217;-72
2022/12/12 05:45:42;;;;;;;;;;;;;;;-2.87;100.00;99461.22;5589625;31;34838;-72
2022/12/12 05:48:49;;;;;;;;;;;;;;;-2.95;100.00;99463.50;5589594;31;35038;-73
2022/12/12 05:51:54;;;;;;;;;;;;;;;-3.00;100.00;99469.94;5575612;31;34944;-72
2022/12/12 05:54:58;;;;;;;;;;;;;;;-3.02;100.00;99477.84;5589145;31;34162;-72
2022/12/12 05:58:03;;;;;;;;;;;;;;;-3.05;100.00;99466.84;5589385;31;34943;-72
2022/12/12 06:01:07;;;;;;;;;;;;;;;-3.08;100.00;99473.06;5575406;31;34164;-72
2022/12/12 06:04:11;;;;;;;;;;;;;;;-3.13;100.00;99470.78;5589327;31;34219;-72
2022/12/12 06:07:15;;;;;;;;;;;;;;;-3.13;100.00;99477.72;5575537;31;35915;-72
2022/12/12 06:10:20;;;;;;;;;;;;;;;-3.12;100.00;99480.22;5575495;31;35136;-72
2022/12/12 06:13:23;;;;;;;;;;;;;;;-3.00;100.00;99477.75;5575344;31;35687;-71
2022/12/12 06:16:27;;;;;;;;;;;;;;;-3.07;100.00;99478.16;5589144;31;34954;-71
2022/12/12 06:19:32;;;;;;;;;;;;;;;-3.05;100.00;99493.62;5589913;31;35028;-71
2022/12/12 06:22:37;;;;;;;;;;;;;;;-3.07;100.00;99491.13;5588707;31;34158;-71
2022/12/12 06:25:42;;;;;;;;;;;;;;;-3.10;100.00;99493.09;5588831;31;34948;-70
2022/12/12 06:28:47;;;;;;;;;;;;;;;-3.13;100.00;99495.88;5588758;31;34902;-70
2022/12/12 06:31:52;;;;;;;;;;;;;;;-3.14;100.00;99500.22;5588569;31;34535;-71
2022/12/12 06:34:58;;;;;;;;;;;;;;;-3.11;100.00;99501.81;5588750;31;35012;-72
2022/12/12 06:38:03;;;;;;;;;;;;;;;-3.12;100.00;99497.53;5588705;31;34733;-71
2022/12/12 06:41:07;;;;;;;;;;;;;;;-3.10;100.00;99495.69;5588951;31;34019;-71
2022/12/12 06:44:10;;;;;;;;;;;;;;;-3.09;100.00;99495.56;5588503;31;34641;-71
2022/12/12 06:47:14;;;;;;;;;;;;;;;-3.09;100.00;99511.13;5574552;31;35012;-71
2022/12/12 06:50:17;;;;;;;;;;;;;;;-3.04;100.00;99518.59;5587958;31;35166;-72
2022/12/12 06:53:26;;;;;;;;;;;;;;;-3.05;100.00;99513.53;5573231;31;33901;-72
2022/12/12 06:56:29;;;;;;;;;;;;;;;-3.09;100.00;99533.66;5574337;31;34287;-70
2022/12/12 06:59:32;;;;;;;;;;;;;;;-3.01;100.00;99538.34;5573487;31;34310;-71
2022/12/12 07:02:35;;;;;;;;;;;;;;;-3.01;100.00;99540.94;5587612;31;34810;-71
2022/12/12 07:05:39;;;;;;;;;;;;;;;-2.98;100.00;99540.72;5587815;31;33670;-71
2022/12/12 07:08:42;;;;;;;;;;;;;;;-2.93;100.00;99541.25;5587902;31;34711;-71
2022/12/12 07:11:46;;;;;;;;;;;;;;;-2.84;100.00;99548.41;5588411;31;34230;-71
2022/12/12 07:14:50;;;;;;;;;;;;;;;-2.80;100.00;99547.25;5590012;31;34462;-72
2022/12/12 07:17:53;;;;;;;;;;;;;;;-2.70;100.00;99550.87;5591400;31;34306;-72
2022/12/12 07:20:57;;;;;;;;;;;;;;;-2.70;100.00;99546.53;5590616;31;34402;-72
2022/12/12 07:23:59;;;;;;;;;;;;;;;-2.66;100.00;99547.97;5590679;31;34854;-72
2022/12/12 07:27:03;;;;;;;;;;;;;;;-2.61;100.00;99557.25;5590835;31;34179;-72
2022/12/12 07:30:07;;;;;;;;;;;;;;;-2.66;100.00;99554.94;5590818;31;34880;-71
2022/12/12 07:33:12;;;;;;;;;;;;;;;-2.66;100.00;99568.75;5591074;31;34920;-72
2022/12/12 07:36:17;;;;;;;;;;;;;;;-2.64;100.00;99566.06;5590859;31;34404;-71
2022/12/12 07:39:20;;;;;;;;;;;;;;;-2.66;100.00;99565.31;5590584;31;34655;-71
2022/12/12 07:42:24;;;;;;;;;;;;;;;-2.64;100.00;99571.25;5576901;31;34884;-71
2022/12/12 07:45:27;;;;;;;;;;;;;;;-2.61;100.00;99565.84;5590674;31;34856;-72
2022/12/12 07:48:30;;;;;;;;;;;;;;;-2.61;100.00;99565.03;5576418;31;32651;-70
2022/12/12 07:51:33;;;;;;;;;;;;;;;-2.59;100.00;99556.19;5590673;31;35228;-70
2022/12/12 07:54:36;;;;;;;;;;;;;;;-2.57;100.00;99564.72;5590470;31;34936;-71
2022/12/12 07:57:40;;;;;;;;;;;;;;;-2.53;99.62;99575.72;5576564;31;32464;-72
2022/12/12 08:00:44;;;;;;;;;;;;;;;-2.47;99.41;99578.72;5590434;31;34307;-71
2022/12/12 08:03:49;;;;;;;;;;;;;;;-2.46;99.76;99580.38;5590283;31;34993;-71
2022/12/12 08:06:52;;;;;;;;;;;;;;;-2.49;98.45;99582.34;5590081;31;34891;-71
2022/12/12 08:10:05;;;;;;;;;;;;;;;-2.44;99.25;99588.91;5590545;31;34264;-72
2022/12/12 08:13:08;;;;;;;;;;;;;;;-2.39;98.53;99610.19;5590594;31;34206;-71
2022/12/12 08:16:13;;;;;;;;;;;;;;;-2.37;98.91;99605.72;5590421;31;34918;-68
2022/12/12 08:19:18;;;;;;;;;;;;;;;-2.36;96.94;99596.16;5590188;31;34706;-71
2022/12/12 08:22:24;;;;;;;;;;;;;;;-2.34;97.02;99615.06;5590315;31;34461;-70
2022/12/12 08:25:28;;;;;;;;;;;;;;;-2.27;96.98;99609.34;5590205;31;34477;-70
2022/12/12 08:28:32;;;;;;;;;;;;;;;-2.23;96.96;99621.19;5590257;31;34728;-72
2022/12/12 08:31:37;;;;;;;;;;;;;;;-2.23;95.70;99622.97;5590235;31;34977;-72
2022/12/12 08:34:41;;;;;;;;;;;;;;;-2.18;95.59;99625.25;5590277;31;35019;-71
2022/12/12 08:37:44;;;;;;;;;;;;;;;-2.06;93.84;99619.19;5576568;31;34591;-72
2022/12/12 08:40:52;;;;;;;;;;;;;;;-2.04;92.13;99614.72;5590102;31;34241;-72
2022/12/12 08:43:55;;;;;;;;;;;;;;;-2.00;89.74;99614.41;5590565;31;34234;-71
2022/12/12 08:47:01;;;;;;;;;;;;;;;-1.98;89.13;99601.28;5576749;31;35027;-71
2022/12/12 08:50:06;;;;;;;;;;;;;;;-1.98;89.07;99607.31;5590175;31;34182;-72
2022/12/12 08:53:11;;;;;;;;;;;;;;;-1.91;87.54;99605.13;5590042;31;35074;-71
2022/12/12 08:56:16;;;;;;;;;;;;;;;-1.86;85.60;99614.28;5590101;31;34965;-71
2022/12/12 08:59:20;;;;;;;;;;;;;;;-1.79;83.86;99612.87;5590112;31;34193;-71
2022/12/12 09:02:26;;;;;;;;;;;;;;;-1.79;83.89;99618.06;5589654;31;34230;-71
2022/12/12 09:05:31;;;;;;;;;;;;;;;-1.74;84.13;99609.94;5590049;31;34788;-71
2022/12/12 09:08:34;;;;;;;;;;;;;;;-1.71;82.94;99617.56;5589780;31;34371;-71
2022/12/12 09:11:38;;;;;;;;;;;;;;;-1.67;82.63;99623.34;5589826;31;34778;-72
2022/12/12 09:14:41;;;;;;;;;;;;;;;-1.66;82.09;99623.25;5589910;31;34567;-71
2022/12/12 09:17:44;;;;;;;;;;;;;;;-1.69;82.65;99641.66;5563227;31;34689;-72
2022/12/12 09:20:51;;;;;;;;;;;;;;;-1.69;82.77;99633.06;5589734;31;34200;-73
2022/12/12 09:23:55;;;;;;;;;;;;;;;-1.69;82.23;99644.25;5575828;31;35260;-71
2022/12/12 09:26:58;;;;;;;;;;;;;;;-1.65;82.96;99637.94;5589743;31;34287;-74
2022/12/12 09:30:02;;;;;;;;;;;;;;;-1.60;82.50;99633.22;5576057;31;33551;-72
2022/12/12 09:33:05;;;;;;;;;;;;;;;-1.52;82.93;99643.91;5575561;31;32771;-72
2022/12/12 09:36:11;;;;;;;;;;;;;;;-1.57;83.00;99634.78;5575029;31;34283;-70
2022/12/12 09:39:14;;;;;;;;;;;;;;;-1.53;82.64;99623.19;5575974;31;34227;-72
2022/12/12 09:42:22;;;;;;;;;;;;;;;-1.41;82.42;99632.75;5589725;31;34724;-72
2022/12/12 09:45:25;;;;;;;;;;;;;;;-1.45;82.81;99636.47;5589525;31;34715;-71
2022/12/12 09:48:36;;;;;;;;;;;;;;;-1.34;81.91;99620.94;5589666;31;34347;-72
2022/12/12 09:51:41;;;;;;;;;;;;;;;-1.21;82.20;99623.50;5589477;31;34857;-72
2022/12/12 09:54:45;;;;;;;;;;;;;;;-1.20;80.88;99620.75;5575728;31;34914;-72
2022/12/12 09:57:54;;;;;;;;;;;;;;;-1.33;80.16;99618.22;5589543;31;34215;-73
2022/12/12 10:01:15;;;;;;;;;;;;;;;-1.33;80.58;99614.78;5589446;31;34288;-72
2022/12/12 10:04:30;;;;;;;;;;;;;;;-1.25;79.37;99620.25;5568923;32;34937;-72
2022/12/12 10:07:44;;;;;;;;;;;;;;;-1.26;79.20;99617.78;5569618;32;34906;-71
2022/12/12 10:10:53;;;;;;;;;;;;;;;-1.30;79.17;99619.75;5569642;32;34309;-72
2022/12/12 10:13:58;;;;;;;;;;;;;;;-1.34;78.92;99626.97;5569625;32;34176;-73
2022/12/12 10:17:04;;;;;;;;;;;;;;;-1.45;78.93;99621.69;5569447;32;34431;-72
2022/12/12 10:20:17;;;;;;;;;;;;;;;-1.43;78.54;99629.41;5568600;32;34849;-72
2022/12/12 10:23:26;;;;;;;;;;;;;;;-1.41;79.97;99633.56;5569545;32;34881;-72
2022/12/12 10:26:29;;;;;;;;;;;;;;;-1.47;78.40;99640.97;5569257;32;34573;-71
2022/12/12 10:29:34;;;;;;;;;;;;;;;-1.35;77.81;99643.50;5569505;32;34019;-71
2022/12/12 10:33:02;;;;;;;;;;;;;;;-1.39;80.40;99649.06;5569150;32;34366;-72
2022/12/12 10:36:06;;;;;;;;;;;;;;;-1.20;77.64;99645.94;5569242;32;34839;-74
2022/12/12 10:39:21;;;;;;;;;;;;;;;-1.11;77.17;99650.47;5569157;32;34329;-72
2022/12/12 10:42:34;;;;;;;;;;;;;;;-1.11;77.66;99656.53;5568070;32;32960;-72
2022/12/12 10:45:53;;;;;;;;;;;;;;;-1.19;75.91;99658.84;5570325;32;34701;-73
2022/12/12 10:48:57;;;;;;;;;;;;;;;-1.19;77.85;99661.47;5570844;32;34942;-73
2022/12/12 10:52:18;;;;;;;;;;;;;;;-1.16;77.32;99660.44;5571735;32;34182;-73
2022/12/12 10:55:41;;;;;;;;;;;;;;;-1.11;77.94;99658.28;5570698;32;34326;-72
2022/12/12 10:58:51;;;;;;;;;;;;;;;-1.06;77.76;99654.41;5571798;32;35124;-73
2022/12/12 11:01:58;;;;;;;;;;;;;;;-0.98;76.33;99652.09;5573913;31;34821;-72
2022/12/12 11:05:26;;;;;;;;;;;;;;;-1.01;77.82;99647.09;5579047;31;34269;-72
2022/12/12 11:08:32;;;;;;;;;;;;;;;-1.19;77.79;99648.44;5591124;31;34961;-74
2022/12/12 11:11:37;;;;;;;;;;;;;;;-1.04;76.91;99655.16;5563972;31;33725;-74
2022/12/12 11:14:47;;;;;;;;;;;;;;;-1.10;77.94;99660.78;5577452;31;34672;-73
2022/12/12 11:17:51;;;;;;;;;;;;;;;-1.00;77.88;99661.78;5591096;31;34631;-73
2022/12/12 11:20:55;;;;;;;;;;;;;;;-1.16;78.34;99668.22;5576468;31;34545;-73
2022/12/12 11:24:02;;;;;;;;;;;;;;;-1.15;78.78;99659.47;5591138;31;34662;-72
2022/12/12 11:27:07;;;;;;;;;;;;;;;-1.26;79.89;99675.03;5590815;31;34221;-74
2022/12/12 11:30:29;;;;;;;;;;;;;;;-1.33;81.12;99666.84;5590604;31;34940;-72
2022/12/12 11:33:38;;;;;;;;;;;;;;;-1.38;80.72;99656.75;5591243;31;34851;-71
2022/12/12 11:36:44;;;;;;;;;;;;;;;-1.37;80.64;99662.78;5576249;31;32577;-73
2022/12/12 11:39:49;;;;;;;;;;;;;;;-1.39;79.61;99667.25;5590428;31;34417;-73
2022/12/12 11:43:21;;;;;;;;;;;;;;;-1.35;78.94;99664.31;5576577;31;34571;-73
2022/12/12 11:46:30;;;;;;;;;;;;;;;-1.13;78.81;99663.63;5589086;31;34219;-72
2022/12/12 11:49:44;;;;;;;;;;;;;;;-0.75;76.03;99671.22;5576831;31;34683;-74
2022/12/12 11:52:48;;;;;;;;;;;;;;;-0.49;75.30;99683.16;5590635;31;34312;-73
2022/12/12 11:55:53;;;;;;;;;;;;;;;-0.40;74.03;99678.19;5590483;31;34904;-72
2022/12/12 11:59:10;;;;;;;;;;;;;;;-0.54;73.98;99677.47;5590346;31;34314;-73
2022/12/12 12:02:13;;;;;;;;;;;;;;;-0.56;74.23;99666.31;5590402;31;34355;-71
2022/12/12 12:05:16;;;;;;;;;;;;;;;0.10;72.54;99671.72;5590448;31;34302;-73
2022/12/12 12:08:19;;;;;;;;;;;;;;;0.32;75.27;99675.16;5590555;31;34444;-73
2022/12/12 12:11:38;;;;;;;;;;;;;;;0.44;73.37;99676.78;5590141;31;34819;-73
2022/12/12 12:14:53;;;;;;;;;;;;;;;0.33;73.71;99674.19;5590490;31;34381;-73
2022/12/12 12:18:06;;;;;;;;;;;;;;;-0.22;77.58;99688.03;5590451;31;34172;-73
2022/12/12 12:21:09;;;;;;;;;;;;;;;-0.40;81.06;99680.78;5590684;31;34858;-72
2022/12/12 12:24:32;;;;;;;;;;;;;;;-0.69;83.12;99662.97;5590426;31;34865;-72
2022/12/12 12:27:46;;;;;;;;;;;;;;;-0.85;85.32;99675.44;5590396;31;34197;-72
2022/12/12 12:30:55;;;;;;;;;;;;;;;-0.96;86.51;99671.03;5590390;31;34269;-74
2022/12/12 12:34:01;;;;;;;;;;;;;;;-0.94;86.04;99669.16;5590454;31;33769;-72
2022/12/12 12:37:10;;;;;;;;;;;;;;;-1.31;87.31;99673.56;5590402;31;34323;-74
2022/12/12 12:40:13;;;;;;;;;;;;;;;-1.31;90.00;99672.78;5576030;31;34268;-72
2022/12/12 12:43:22;;;;;;;;;;;;;;;-1.23;89.38;99672.22;5589798;31;34205;-72
2022/12/12 12:46:46;;;;;;;;;;;;;;;-1.43;90.37;99669.25;5590281;31;34802;-72
2022/12/12 12:49:50;;;;;;;;;;;;;;;-1.38;91.27;99679.34;5590485;31;34348;-73
2022/12/12 12:52:59;;;;;;;;;;;;;;;-1.37;92.33;99676.62;5590182;31;34334;-73
2022/12/12 12:56:07;;;;;;;;;;;;;;;-1.38;93.48;99682.78;5589988;31;34303;-74
2022/12/12 12:59:20;;;;;;;;;;;;;;;-1.38;92.72;99687.97;5590185;31;34981;-73
2022/12/12 13:02:42;;;;;;;;;;;;;;;-1.16;92.60;99692.47;5589889;31;34306;-74
2022/12/12 13:05:45;;;;;;;;;;;;;;;-1.08;93.03;99691.94;5576047;31;34919;-73
2022/12/12 13:08:51;;;;;;;;;;;;;;;-1.36;94.68;99698.28;5590133;31;34780;-74
2022/12/12 13:12:14;;;;;;;;;;;;;;;-1.44;96.05;99698.81;5575117;31;34350;-73
2022/12/12 13:15:17;;;;;;;;;;;;;;;-1.41;96.76;99701.22;5576035;31;32768;-73
2022/12/12 13:18:20;;;;;;;;;;;;;;;-1.41;96.01;99692.56;5590445;31;34779;-74
2022/12/12 13:21:38;;;;;;;;;;;;;;;-1.28;98.32;99695.13;5589786;31;34209;-72
2022/12/12 13:24:45;;;;;;;;;;;;;;;-1.28;97.23;99693.34;5589871;31;34931;-74
2022/12/12 13:27:52;;;;;;;;;;;;;;;-1.39;99.12;99704.53;5576110;31;34216;-73
2022/12/12 13:30:54;;;;;;;;;;;;;;;-1.41;97.99;99696.00;5589799;31;34806;-74
2022/12/12 13:34:03;;;;;;;;;;;;;;;-1.49;96.70;99684.47;5575539;31;34417;-74
2022/12/12 13:37:06;;;;;;;;;;;;;;;-1.47;97.14;99698.22;5589618;31;34419;-74
2022/12/12 13:40:21;;;;;;;;;;;;;;;-1.48;97.02;99694.78;5589803;31;34589;-73
2022/12/12 13:43:36;;;;;;;;;;;;;;;-1.57;96.53;99710.19;5589399;31;34878;-75
2022/12/12 13:46:40;;;;;;;;;;;;;;;-1.62;96.03;99702.72;5589183;31;34902;-73
2022/12/12 13:50:03;;;;;;;;;;;;;;;-1.53;96.57;99704.66;5589248;31;34237;-72
2022/12/12 13:53:07;;;;;;;;;;;;;;;-1.56;96.13;99717.06;5575536;31;34349;-73
2022/12/12 13:56:29;;;;;;;;;;;;;;;-1.59;96.10;99714.66;5575623;31;37470;-73
2022/12/12 13:59:52;;;;;;;;;;;;;;;-1.63;97.28;99708.00;5575075;31;33670;-73
2022/12/12 14:03:03;;;;;;;;;;;;;;;-1.64;97.76;99714.97;5589091;31;34303;-73
2022/12/12 14:06:08;;;;;;;;;;;;;;;-1.73;97.91;99718.22;5575259;31;34475;-73
2022/12/12 14:09:20;;;;;;;;;;;;;;;-1.80;96.33;99715.22;5589266;31;35049;-71
2022/12/12 14:12:39;;;;;;;;;;;;;;;-1.81;95.83;99715.34;5589766;31;34835;-73
2022/12/12 14:15:42;;;;;;;;;;;;;;;-1.81;96.01;99715.34;5575253;31;34949;-72
2022/12/12 14:18:48;;;;;;;;;;;;;;;-1.85;94.94;99725.13;5589436;31;34792;-74
2022/12/12 14:21:51;;;;;;;;;;;;;;;-1.74;94.51;99718.34;5589318;31;34874;-73
2022/12/12 14:25:03;;;;;;;;;;;;;;;-1.73;93.45;99714.78;5581981;31;34286;-73
2022/12/12 14:28:15;;;;;;;;;;;;;;;-1.77;94.21;99714.19;5595710;31;34358;-73
2022/12/12 14:31:22;;;;;;;;;;;;;;;-1.76;94.86;99713.25;5595482;31;34351;-72
2022/12/12 14:34:45;;;;;;;;;;;;;;;-1.74;95.51;99713.94;5581467;31;34300;-73
2022/12/12 14:37:50;;;;;;;;;;;;;;;-1.71;95.18;99726.75;5595403;31;34742;-73
2022/12/12 14:41:01;;;;;;;;;;;;;;;-1.83;97.16;99725.00;5594937;31;35063;-72
2022/12/12 14:44:12;;;;;;;;;;;;;;;-1.86;98.50;99717.41;5581705;31;34891;-72
2022/12/12 14:47:37;;;;;;;;;;;;;;;-1.93;99.62;99713.56;5581234;31;33055;-72
2022/12/12 14:50:48;;;;;;;;;;;;;;;-1.79;100.00;99721.25;5595203;31;34883;-71
2022/12/12 14:53:54;;;;;;;;;;;;;;;-1.93;100.00;99731.75;5580612;31;34981;-72
2022/12/12 14:57:00;;;;;;;;;;;;;;;-1.99;100.00;99729.59;5581354;31;34771;-73
2022/12/12 15:00:14;;;;;;;;;;;;;;;-1.87;100.00;99736.53;5594801;31;34794;-73
2022/12/12 15:03:26;;;;;;;;;;;;;;;-1.88;100.00;99743.50;5594645;31;34274;-72
2022/12/12 15:06:30;;;;;;;;;;;;;;;-1.91;100.00;99751.53;5580424;31;32791;-72
2022/12/12 15:09:37;;;;;;;;;;;;;;;-1.98;100.00;99752.84;5594584;31;34554;-72
2022/12/12 15:12:44;;;;;;;;;;;;;;;-1.99;100.00;99758.19;5594566;31;35045;-72
2022/12/12 15:15:49;;;;;;;;;;;;;;;-2.00;100.00;99766.91;5594775;31;34130;-72
2022/12/12 15:18:55;;;;;;;;;;;;;;;-1.95;100.00;99764.84;5594435;31;33983;-72
2022/12/12 15:22:00;;;;;;;;;;;;;;;-2.06;100.00;99762.13;5594281;31;34288;-73
2022/12/12 15:25:18;;;;;;;;;;;;;;;-2.04;100.00;99766.28;5594123;31;34227;-73
2022/12/12 15:28:25;;;;;;;;;;;;;;;-1.92;100.00;99768.06;5594026;31;34963;-72
2022/12/12 15:31:28;;;;;;;;;;;;;;;-1.91;100.00;99784.47;5593967;31;34839;-72
2022/12/12 15:34:33;;;;;;;;;;;;;;;-1.98;100.00;99781.44;5591767;31;34351;-72
2022/12/12 15:37:37;;;;;;;;;;;;;;;-2.01;100.00;99786.03;5590434;31;34370;-72
2022/12/12 15:40:53;;;;;;;;;;;;;;;-1.99;100.00;99781.56;5590017;31;34384;-72
2022/12/12 15:43:58;;;;;;;;;;;;;;;-2.00;100.00;99791.12;5563564;31;35696;-73
2022/12/12 15:47:03;;;;;;;;;;;;;;;-1.97;100.00;99790.09;5590596;31;34966;-71
2022/12/12 15:50:18;;;;;;;;;;;;;;;-2.02;100.00;99793.00;5590493;31;34504;-72
2022/12/12 15:53:24;;;;;;;;;;;;;;;-2.01;100.00;99799.03;5576521;31;35664;-72
2022/12/12 15:56:28;;;;;;;;;;;;;;;-1.98;100.00;99801.41;5590246;31;34299;-72
2022/12/12 15:59:33;;;;;;;;;;;;;;;-2.03;100.00;99800.91;5590257;31;34328;-73
2022/12/12 16:02:39;;;;;;;;;;;;;;;-2.05;100.00;99782.81;5576222;31;34281;-72
2022/12/12 16:05:56;;;;;;;;;;;;;;;-1.97;100.00;99785.72;5576288;31;35586;-72
2022/12/12 16:09:11;;;;;;;;;;;;;;;-1.92;100.00;99795.81;5590137;31;34409;-72
2022/12/12 16:12:36;;;;;;;;;;;;;;;-1.96;100.00;99791.75;5590136;31;34945;-72
2022/12/12 16:15:39;;;;;;;;;;;;;;;-1.87;100.00;99791.12;5576016;31;32984;-73
2022/12/12 16:18:44;;;;;;;;;;;;;;;-1.95;100.00;99798.62;5576442;31;34691;-71
2022/12/12 16:21:49;;;;;;;;;;;;;;;-2.01;100.00;99794.66;5576365;31;34074;-73
2022/12/12 16:24:55;;;;;;;;;;;;;;;-1.93;100.00;99799.34;5589677;31;34910;-72